Nogalus, Texas
Current Conditions -  °F | °C
As of 12:53 PM on Tuesday 21 Oct 2014 (Local Time) from KLFK Reporting Station
Clear Clear  
Wind Chill: 80°   Ceiling: Unl
Heat Index: 80°   Visibility: 10mi
Dew Point: 55°   Wind: 6mph
Humidity: 42%   Direction: NA
Pressure: 30.08"   Gusts: NA
Location:  31.0585°N, 95.0561°W
Report Text: KLFK 211753Z AUTO VRB05KT 10SM CLR 27/13 A3008 RMK AO2 SLP183 T02670128 10267 20122 58010
Loading
Personal Weather Stations






























Interactive Weather Map
Tropical Storm Tracking
New forecast layout! Learn more

10-Day Weather Forecast

Advertisements
Track Severe Weather on mobile